sensor_id;sensor_type;location;lat;lon;timestamp;P1;durP1;ratioP1;P2;durP2;ratioP2
10469;SDS011;5282;47.052;15.458;2022-12-05T00:00:01;13.87;;;12.47;;
10469;SDS011;5282;47.052;15.458;2022-12-05T00:02:28;16.50;;;13.93;;
10469;SDS011;5282;47.052;15.458;2022-12-05T00:04:56;15.43;;;13.80;;
10469;SDS011;5282;47.052;15.458;2022-12-05T00:07:24;15.67;;;14.07;;
10469;SDS011;5282;47.052;15.458;2022-12-05T00:09:51;17.67;;;14.87;;
10469;SDS011;5282;47.052;15.458;2022-12-05T00:12:18;15.57;;;13.97;;
10469;SDS011;5282;47.052;15.458;2022-12-05T00:14:45;15.13;;;13.57;;
10469;SDS011;5282;47.052;15.458;2022-12-05T00:17:12;15.30;;;13.77;;
10469;SDS011;5282;47.052;15.458;2022-12-05T00:19:40;15.40;;;13.83;;
10469;SDS011;5282;47.052;15.458;2022-12-05T00:22:06;17.13;;;15.20;;
10469;SDS011;5282;47.052;15.458;2022-12-05T00:24:35;16.33;;;14.37;;
10469;SDS011;5282;47.052;15.458;2022-12-05T00:27:02;17.03;;;14.77;;
10469;SDS011;5282;47.052;15.458;2022-12-05T00:29:29;15.80;;;14.10;;
10469;SDS011;5282;47.052;15.458;2022-12-05T00:31:56;18.17;;;14.87;;
10469;SDS011;5282;47.052;15.458;2022-12-05T00:34:23;19.73;;;16.40;;
10469;SDS011;5282;47.052;15.458;2022-12-05T00:36:50;19.87;;;15.40;;
10469;SDS011;5282;47.052;15.458;2022-12-05T00:39:17;19.40;;;16.50;;
10469;SDS011;5282;47.052;15.458;2022-12-05T00:41:45;19.60;;;16.37;;
10469;SDS011;5282;47.052;15.458;2022-12-05T00:44:13;21.80;;;16.30;;
10469;SDS011;5282;47.052;15.458;2022-12-05T00:46:40;16.07;;;13.97;;
10469;SDS011;5282;47.052;15.458;2022-12-05T00:49:09;19.73;;;15.37;;
10469;SDS011;5282;47.052;15.458;2022-12-05T00:51:37;18.03;;;15.13;;
10469;SDS011;5282;47.052;15.458;2022-12-05T00:54:07;19.30;;;15.03;;
10469;SDS011;5282;47.052;15.458;2022-12-05T00:56:36;17.87;;;14.33;;
10469;SDS011;5282;47.052;15.458;2022-12-05T00:59:06;16.80;;;14.37;;
10469;SDS011;5282;47.052;15.458;2022-12-05T01:01:34;18.07;;;14.77;;
10469;SDS011;5282;47.052;15.458;2022-12-05T01:04:05;17.63;;;14.47;;
10469;SDS011;5282;47.052;15.458;2022-12-05T01:06:34;17.53;;;14.37;;
10469;SDS011;5282;47.052;15.458;2022-12-05T01:09:01;16.60;;;14.37;;
10469;SDS011;5282;47.052;15.458;2022-12-05T01:11:29;18.70;;;14.80;;
10469;SDS011;5282;47.052;15.458;2022-12-05T01:13:57;17.00;;;13.97;;
10469;SDS011;5282;47.052;15.458;2022-12-05T01:16:28;19.43;;;14.70;;
10469;SDS011;5282;47.052;15.458;2022-12-05T01:18:57;18.43;;;14.13;;
10469;SDS011;5282;47.052;15.458;2022-12-05T01:21:25;19.43;;;15.20;;
10469;SDS011;5282;47.052;15.458;2022-12-05T01:23:53;20.77;;;15.43;;
10469;SDS011;5282;47.052;15.458;2022-12-05T01:26:23;18.90;;;15.53;;
10469;SDS011;5282;47.052;15.458;2022-12-05T01:28:50;19.77;;;14.90;;
10469;SDS011;5282;47.052;15.458;2022-12-05T01:31:20;19.17;;;14.83;;
10469;SDS011;5282;47.052;15.458;2022-12-05T01:33:51;18.63;;;14.83;;
10469;SDS011;5282;47.052;15.458;2022-12-05T01:36:19;20.07;;;14.53;;
10469;SDS011;5282;47.052;15.458;2022-12-05T01:38:47;18.63;;;14.00;;
10469;SDS011;5282;47.052;15.458;2022-12-05T01:41:16;18.63;;;14.77;;
10469;SDS011;5282;47.052;15.458;2022-12-05T01:43:55;19.30;;;15.03;;
10469;SDS011;5282;47.052;15.458;2022-12-05T01:46:25;19.33;;;15.40;;
10469;SDS011;5282;47.052;15.458;2022-12-05T01:48:56;20.97;;;16.23;;
10469;SDS011;5282;47.052;15.458;2022-12-05T01:51:27;22.03;;;15.50;;
10469;SDS011;5282;47.052;15.458;2022-12-05T01:53:56;23.77;;;15.33;;
10469;SDS011;5282;47.052;15.458;2022-12-05T01:56:24;22.10;;;16.00;;
10469;SDS011;5282;47.052;15.458;2022-12-05T01:58:51;22.03;;;15.63;;
10469;SDS011;5282;47.052;15.458;2022-12-05T02:01:20;22.90;;;16.33;;
10469;SDS011;5282;47.052;15.458;2022-12-05T02:03:47;23.17;;;15.63;;
10469;SDS011;5282;47.052;15.458;2022-12-05T02:06:21;23.07;;;15.97;;
10469;SDS011;5282;47.052;15.458;2022-12-05T02:08:48;23.87;;;17.03;;
10469;SDS011;5282;47.052;15.458;2022-12-05T02:11:17;23.73;;;17.17;;
10469;SDS011;5282;47.052;15.458;2022-12-05T02:13:49;25.33;;;17.87;;
10469;SDS011;5282;47.052;15.458;2022-12-05T02:16:29;28.30;;;17.60;;
10469;SDS011;5282;47.052;15.458;2022-12-05T02:19:12;26.47;;;16.63;;
10469;SDS011;5282;47.052;15.458;2022-12-05T02:22:14;27.33;;;17.63;;
10469;SDS011;5282;47.052;15.458;2022-12-05T02:24:54;25.00;;;16.80;;
10469;SDS011;5282;47.052;15.458;2022-12-05T02:27:42;25.43;;;18.13;;
10469;SDS011;5282;47.052;15.458;2022-12-05T02:30:28;23.00;;;16.07;;
10469;SDS011;5282;47.052;15.458;2022-12-05T02:33:03;22.67;;;16.13;;
10469;SDS011;5282;47.052;15.458;2022-12-05T02:35:42;23.43;;;15.97;;
10469;SDS011;5282;47.052;15.458;2022-12-05T02:38:20;21.07;;;15.27;;
10469;SDS011;5282;47.052;15.458;2022-12-05T02:40:54;21.30;;;15.83;;
10469;SDS011;5282;47.052;15.458;2022-12-05T02:43:29;20.43;;;15.20;;
10469;SDS011;5282;47.052;15.458;2022-12-05T02:46:04;23.27;;;15.10;;
10469;SDS011;5282;47.052;15.458;2022-12-05T02:48:35;24.63;;;16.30;;
10469;SDS011;5282;47.052;15.458;2022-12-05T02:51:04;21.73;;;14.97;;
10469;SDS011;5282;47.052;15.458;2022-12-05T02:53:34;23.10;;;15.07;;
10469;SDS011;5282;47.052;15.458;2022-12-05T02:56:03;20.83;;;15.23;;
10469;SDS011;5282;47.052;15.458;2022-12-05T02:58:35;21.27;;;15.07;;
10469;SDS011;5282;47.052;15.458;2022-12-05T03:01:11;21.03;;;15.23;;
10469;SDS011;5282;47.052;15.458;2022-12-05T03:03:38;24.30;;;15.73;;
10469;SDS011;5282;47.052;15.458;2022-12-05T03:06:08;25.23;;;16.83;;
10469;SDS011;5282;47.052;15.458;2022-12-05T03:08:43;21.87;;;15.43;;
10469;SDS011;5282;47.052;15.458;2022-12-05T03:11:19;21.80;;;16.33;;
10469;SDS011;5282;47.052;15.458;2022-12-05T03:13:47;18.87;;;14.10;;
10469;SDS011;5282;47.052;15.458;2022-12-05T03:16:19;21.67;;;14.60;;
10469;SDS011;5282;47.052;15.458;2022-12-05T03:18:54;21.50;;;15.50;;
10469;SDS011;5282;47.052;15.458;2022-12-05T03:21:26;21.13;;;14.83;;
10469;SDS011;5282;47.052;15.458;2022-12-05T03:24:01;25.57;;;15.90;;
10469;SDS011;5282;47.052;15.458;2022-12-05T03:26:35;24.43;;;16.30;;
10469;SDS011;5282;47.052;15.458;2022-12-05T03:29:10;24.30;;;15.30;;
10469;SDS011;5282;47.052;15.458;2022-12-05T03:31:51;25.20;;;16.20;;
10469;SDS011;5282;47.052;15.458;2022-12-05T03:34:26;24.57;;;15.87;;
10469;SDS011;5282;47.052;15.458;2022-12-05T03:37:04;27.83;;;16.53;;
10469;SDS011;5282;47.052;15.458;2022-12-05T03:39:36;23.00;;;15.30;;
10469;SDS011;5282;47.052;15.458;2022-12-05T03:42:08;25.43;;;16.50;;
10469;SDS011;5282;47.052;15.458;2022-12-05T03:44:41;27.43;;;17.60;;
10469;SDS011;5282;47.052;15.458;2022-12-05T03:47:16;26.13;;;17.87;;
10469;SDS011;5282;47.052;15.458;2022-12-05T03:49:50;25.60;;;15.87;;
10469;SDS011;5282;47.052;15.458;2022-12-05T03:52:23;27.37;;;17.00;;
10469;SDS011;5282;47.052;15.458;2022-12-05T03:54:55;25.23;;;16.90;;
10469;SDS011;5282;47.052;15.458;2022-12-05T03:57:27;29.90;;;17.53;;
10469;SDS011;5282;47.052;15.458;2022-12-05T03:59:58;32.40;;;18.10;;
10469;SDS011;5282;47.052;15.458;2022-12-05T04:02:32;28.17;;;17.73;;
10469;SDS011;5282;47.052;15.458;2022-12-05T04:05:11;34.17;;;18.47;;
10469;SDS011;5282;47.052;15.458;2022-12-05T04:07:43;30.40;;;18.23;;
10469;SDS011;5282;47.052;15.458;2022-12-05T04:10:14;33.80;;;17.97;;
10469;SDS011;5282;47.052;15.458;2022-12-05T04:12:47;32.40;;;18.57;;
10469;SDS011;5282;47.052;15.458;2022-12-05T04:15:19;31.83;;;20.00;;
10469;SDS011;5282;47.052;15.458;2022-12-05T04:17:52;32.80;;;18.33;;
10469;SDS011;5282;47.052;15.458;2022-12-05T04:20:23;59.53;;;18.37;;
10469;SDS011;5282;47.052;15.458;2022-12-05T04:23:13;30.20;;;18.60;;
10469;SDS011;5282;47.052;15.458;2022-12-05T04:25:45;31.97;;;17.40;;
10469;SDS011;5282;47.052;15.458;2022-12-05T04:28:24;29.93;;;16.70;;
10469;SDS011;5282;47.052;15.458;2022-12-05T04:30:59;31.87;;;17.50;;
10469;SDS011;5282;47.052;15.458;2022-12-05T04:33:33;29.80;;;17.77;;
10469;SDS011;5282;47.052;15.458;2022-12-05T04:36:11;28.87;;;17.07;;
10469;SDS011;5282;47.052;15.458;2022-12-05T04:38:42;27.23;;;17.07;;
10469;SDS011;5282;47.052;15.458;2022-12-05T04:41:18;25.40;;;16.13;;
10469;SDS011;5282;47.052;15.458;2022-12-05T04:43:51;26.77;;;16.90;;
10469;SDS011;5282;47.052;15.458;2022-12-05T04:46:21;27.70;;;17.80;;
10469;SDS011;5282;47.052;15.458;2022-12-05T04:48:53;26.40;;;17.10;;
10469;SDS011;5282;47.052;15.458;2022-12-05T04:51:24;26.87;;;16.33;;
10469;SDS011;5282;47.052;15.458;2022-12-05T04:53:58;25.43;;;16.57;;
10469;SDS011;5282;47.052;15.458;2022-12-05T04:56:32;25.20;;;16.90;;
10469;SDS011;5282;47.052;15.458;2022-12-05T04:59:01;25.50;;;16.07;;
10469;SDS011;5282;47.052;15.458;2022-12-05T05:01:30;27.10;;;16.17;;
10469;SDS011;5282;47.052;15.458;2022-12-05T05:04:06;25.93;;;17.17;;
10469;SDS011;5282;47.052;15.458;2022-12-05T05:06:37;25.50;;;16.60;;
10469;SDS011;5282;47.052;15.458;2022-12-05T05:09:06;25.47;;;16.10;;
10469;SDS011;5282;47.052;15.458;2022-12-05T05:11:33;23.80;;;16.13;;
10469;SDS011;5282;47.052;15.458;2022-12-05T05:14:01;23.67;;;15.83;;
10469;SDS011;5282;47.052;15.458;2022-12-05T05:16:29;24.20;;;15.57;;
10469;SDS011;5282;47.052;15.458;2022-12-05T05:18:58;21.70;;;15.17;;
10469;SDS011;5282;47.052;15.458;2022-12-05T05:21:27;24.20;;;15.40;;
10469;SDS011;5282;47.052;15.458;2022-12-05T05:23:55;26.70;;;17.13;;
10469;SDS011;5282;47.052;15.458;2022-12-05T05:26:25;26.00;;;16.53;;
10469;SDS011;5282;47.052;15.458;2022-12-05T05:28:53;23.40;;;14.80;;
10469;SDS011;5282;47.052;15.458;2022-12-05T05:31:23;21.63;;;14.50;;
10469;SDS011;5282;47.052;15.458;2022-12-05T05:33:51;21.30;;;14.80;;
10469;SDS011;5282;47.052;15.458;2022-12-05T05:36:22;22.10;;;14.33;;
10469;SDS011;5282;47.052;15.458;2022-12-05T05:38:52;20.03;;;14.37;;
10469;SDS011;5282;47.052;15.458;2022-12-05T05:41:21;21.23;;;14.27;;
10469;SDS011;5282;47.052;15.458;2022-12-05T05:43:50;20.50;;;13.53;;
10469;SDS011;5282;47.052;15.458;2022-12-05T05:46:19;22.43;;;14.17;;
10469;SDS011;5282;47.052;15.458;2022-12-05T05:48:49;18.17;;;13.23;;
10469;SDS011;5282;47.052;15.458;2022-12-05T05:51:18;18.03;;;12.60;;
10469;SDS011;5282;47.052;15.458;2022-12-05T05:53:46;17.57;;;12.60;;
10469;SDS011;5282;47.052;15.458;2022-12-05T05:56:15;19.80;;;12.80;;
10469;SDS011;5282;47.052;15.458;2022-12-05T05:58:44;19.87;;;12.87;;
10469;SDS011;5282;47.052;15.458;2022-12-05T06:01:12;21.63;;;13.13;;
10469;SDS011;5282;47.052;15.458;2022-12-05T06:03:40;20.53;;;12.93;;
10469;SDS011;5282;47.052;15.458;2022-12-05T06:06:08;18.10;;;12.77;;
10469;SDS011;5282;47.052;15.458;2022-12-05T06:08:37;18.10;;;13.27;;
10469;SDS011;5282;47.052;15.458;2022-12-05T06:11:06;17.93;;;12.93;;
10469;SDS011;5282;47.052;15.458;2022-12-05T06:13:35;17.10;;;13.10;;
10469;SDS011;5282;47.052;15.458;2022-12-05T06:16:03;16.87;;;13.47;;
10469;SDS011;5282;47.052;15.458;2022-12-05T06:18:31;18.23;;;13.60;;
10469;SDS011;5282;47.052;15.458;2022-12-05T06:20:58;17.47;;;13.53;;
10469;SDS011;5282;47.052;15.458;2022-12-05T06:23:25;18.03;;;13.17;;
10469;SDS011;5282;47.052;15.458;2022-12-05T06:25:53;17.97;;;12.70;;
10469;SDS011;5282;47.052;15.458;2022-12-05T06:28:22;17.47;;;13.47;;
10469;SDS011;5282;47.052;15.458;2022-12-05T06:30:52;16.63;;;13.07;;
10469;SDS011;5282;47.052;15.458;2022-12-05T06:33:19;16.73;;;12.83;;
10469;SDS011;5282;47.052;15.458;2022-12-05T06:35:46;16.40;;;13.10;;
10469;SDS011;5282;47.052;15.458;2022-12-05T06:38:13;20.87;;;16.20;;
10469;SDS011;5282;47.052;15.458;2022-12-05T06:40:40;16.60;;;13.17;;
10469;SDS011;5282;47.052;15.458;2022-12-05T06:43:07;17.93;;;12.80;;
10469;SDS011;5282;47.052;15.458;2022-12-05T06:45:37;19.03;;;13.50;;
10469;SDS011;5282;47.052;15.458;2022-12-05T06:48:05;18.77;;;13.37;;
10469;SDS011;5282;47.052;15.458;2022-12-05T06:50:32;18.03;;;12.43;;
10469;SDS011;5282;47.052;15.458;2022-12-05T06:53:00;16.20;;;13.23;;
10469;SDS011;5282;47.052;15.458;2022-12-05T06:55:27;17.13;;;13.00;;
10469;SDS011;5282;47.052;15.458;2022-12-05T06:57:53;17.13;;;13.10;;
10469;SDS011;5282;47.052;15.458;2022-12-05T07:00:20;16.63;;;12.77;;
10469;SDS011;5282;47.052;15.458;2022-12-05T07:03:09;17.87;;;12.83;;
10469;SDS011;5282;47.052;15.458;2022-12-05T07:05:36;18.60;;;13.10;;
10469;SDS011;5282;47.052;15.458;2022-12-05T07:08:03;19.97;;;14.03;;
10469;SDS011;5282;47.052;15.458;2022-12-05T07:10:30;17.00;;;12.30;;
10469;SDS011;5282;47.052;15.458;2022-12-05T07:12:57;14.87;;;12.97;;
10469;SDS011;5282;47.052;15.458;2022-12-05T07:15:24;16.83;;;12.77;;
10469;SDS011;5282;47.052;15.458;2022-12-05T07:17:51;17.70;;;12.73;;
10469;SDS011;5282;47.052;15.458;2022-12-05T07:20:20;18.27;;;12.53;;
10469;SDS011;5282;47.052;15.458;2022-12-05T07:22:47;15.30;;;12.80;;
10469;SDS011;5282;47.052;15.458;2022-12-05T07:25:14;15.57;;;13.00;;
10469;SDS011;5282;47.052;15.458;2022-12-05T07:27:41;17.73;;;13.23;;
10469;SDS011;5282;47.052;15.458;2022-12-05T07:30:08;17.93;;;14.20;;
10469;SDS011;5282;47.052;15.458;2022-12-05T07:32:35;16.23;;;13.23;;
10469;SDS011;5282;47.052;15.458;2022-12-05T07:35:03;20.97;;;13.50;;
10469;SDS011;5282;47.052;15.458;2022-12-05T07:37:31;16.13;;;12.53;;
10469;SDS011;5282;47.052;15.458;2022-12-05T07:39:58;19.17;;;13.83;;
10469;SDS011;5282;47.052;15.458;2022-12-05T07:42:25;18.33;;;13.87;;
10469;SDS011;5282;47.052;15.458;2022-12-05T07:44:52;16.13;;;13.00;;
10469;SDS011;5282;47.052;15.458;2022-12-05T07:47:19;17.50;;;13.70;;
10469;SDS011;5282;47.052;15.458;2022-12-05T07:49:46;21.00;;;14.23;;
10469;SDS011;5282;47.052;15.458;2022-12-05T07:52:13;17.90;;;14.13;;
10469;SDS011;5282;47.052;15.458;2022-12-05T07:54:41;18.90;;;14.17;;
10469;SDS011;5282;47.052;15.458;2022-12-05T07:57:10;19.13;;;13.67;;
10469;SDS011;5282;47.052;15.458;2022-12-05T07:59:37;17.47;;;13.70;;
10469;SDS011;5282;47.052;15.458;2022-12-05T08:02:04;17.03;;;13.03;;
10469;SDS011;5282;47.052;15.458;2022-12-05T08:04:30;17.53;;;14.63;;
10469;SDS011;5282;47.052;15.458;2022-12-05T08:06:57;16.23;;;14.13;;
10469;SDS011;5282;47.052;15.458;2022-12-05T08:09:24;18.53;;;14.30;;
10469;SDS011;5282;47.052;15.458;2022-12-05T08:11:53;15.77;;;12.93;;
10469;SDS011;5282;47.052;15.458;2022-12-05T08:14:20;17.50;;;13.47;;
10469;SDS011;5282;47.052;15.458;2022-12-05T08:16:46;17.77;;;14.13;;
10469;SDS011;5282;47.052;15.458;2022-12-05T08:19:13;17.10;;;13.43;;
10469;SDS011;5282;47.052;15.458;2022-12-05T08:21:41;15.87;;;13.23;;
10469;SDS011;5282;47.052;15.458;2022-12-05T08:24:09;16.57;;;14.20;;
10469;SDS011;5282;47.052;15.458;2022-12-05T08:26:36;16.00;;;13.57;;
10469;SDS011;5282;47.052;15.458;2022-12-05T08:29:06;17.87;;;13.83;;
10469;SDS011;5282;47.052;15.458;2022-12-05T08:31:35;15.97;;;13.67;;
10469;SDS011;5282;47.052;15.458;2022-12-05T08:34:05;16.50;;;13.60;;
10469;SDS011;5282;47.052;15.458;2022-12-05T08:36:31;19.13;;;14.83;;
10469;SDS011;5282;47.052;15.458;2022-12-05T08:38:59;19.17;;;14.30;;
10469;SDS011;5282;47.052;15.458;2022-12-05T08:41:27;17.53;;;13.83;;
10469;SDS011;5282;47.052;15.458;2022-12-05T08:43:54;20.03;;;15.30;;
10469;SDS011;5282;47.052;15.458;2022-12-05T08:46:23;16.50;;;14.60;;
10469;SDS011;5282;47.052;15.458;2022-12-05T08:48:50;19.13;;;14.87;;
10469;SDS011;5282;47.052;15.458;2022-12-05T08:51:17;18.17;;;14.53;;
10469;SDS011;5282;47.052;15.458;2022-12-05T08:53:44;19.13;;;15.07;;
10469;SDS011;5282;47.052;15.458;2022-12-05T08:56:11;18.57;;;14.83;;
10469;SDS011;5282;47.052;15.458;2022-12-05T08:58:40;19.13;;;14.20;;
10469;SDS011;5282;47.052;15.458;2022-12-05T09:01:08;18.20;;;14.77;;
10469;SDS011;5282;47.052;15.458;2022-12-05T09:03:37;19.13;;;13.97;;
10469;SDS011;5282;47.052;15.458;2022-12-05T09:06:05;16.70;;;14.63;;
10469;SDS011;5282;47.052;15.458;2022-12-05T09:08:33;17.70;;;14.37;;
10469;SDS011;5282;47.052;15.458;2022-12-05T09:11:03;18.07;;;14.20;;
10469;SDS011;5282;47.052;15.458;2022-12-05T09:13:31;18.53;;;14.50;;
10469;SDS011;5282;47.052;15.458;2022-12-05T09:16:03;18.67;;;14.63;;
10469;SDS011;5282;47.052;15.458;2022-12-05T09:18:30;17.30;;;13.40;;
10469;SDS011;5282;47.052;15.458;2022-12-05T09:20:59;16.23;;;14.23;;
10469;SDS011;5282;47.052;15.458;2022-12-05T09:23:30;17.50;;;14.57;;
10469;SDS011;5282;47.052;15.458;2022-12-05T09:25:57;16.47;;;14.17;;
10469;SDS011;5282;47.052;15.458;2022-12-05T09:28:27;16.30;;;13.67;;
10469;SDS011;5282;47.052;15.458;2022-12-05T09:30:55;23.63;;;14.60;;
10469;SDS011;5282;47.052;15.458;2022-12-05T09:33:23;18.07;;;13.60;;
10469;SDS011;5282;47.052;15.458;2022-12-05T09:35:50;16.07;;;12.90;;
10469;SDS011;5282;47.052;15.458;2022-12-05T09:38:18;15.77;;;13.40;;
10469;SDS011;5282;47.052;15.458;2022-12-05T09:40:45;15.47;;;13.80;;
10469;SDS011;5282;47.052;15.458;2022-12-05T09:43:18;16.53;;;13.63;;
10469;SDS011;5282;47.052;15.458;2022-12-05T09:45:52;17.03;;;13.63;;
10469;SDS011;5282;47.052;15.458;2022-12-05T09:48:24;16.33;;;13.47;;
10469;SDS011;5282;47.052;15.458;2022-12-05T09:50:52;16.63;;;14.13;;
10469;SDS011;5282;47.052;15.458;2022-12-05T09:53:25;17.53;;;14.13;;
10469;SDS011;5282;47.052;15.458;2022-12-05T09:55:56;16.57;;;14.03;;
10469;SDS011;5282;47.052;15.458;2022-12-05T09:58:33;17.33;;;13.47;;
10469;SDS011;5282;47.052;15.458;2022-12-05T10:06:53;16.70;;;13.33;;
10469;SDS011;5282;47.052;15.458;2022-12-05T10:09:32;16.50;;;12.70;;
10469;SDS011;5282;47.052;15.458;2022-12-05T10:12:19;15.83;;;13.07;;
10469;SDS011;5282;47.052;15.458;2022-12-05T10:14:58;16.10;;;13.57;;
10469;SDS011;5282;47.052;15.458;2022-12-05T10:17:30;17.73;;;14.13;;
10469;SDS011;5282;47.052;15.458;2022-12-05T10:20:00;17.07;;;13.80;;
10469;SDS011;5282;47.052;15.458;2022-12-05T10:22:34;16.83;;;13.87;;
10469;SDS011;5282;47.052;15.458;2022-12-05T10:25:11;22.30;;;15.17;;
10469;SDS011;5282;47.052;15.458;2022-12-05T10:27:40;17.00;;;13.60;;
10469;SDS011;5282;47.052;15.458;2022-12-05T10:30:12;19.83;;;14.07;;
10469;SDS011;5282;47.052;15.458;2022-12-05T10:32:42;15.10;;;13.33;;
10469;SDS011;5282;47.052;15.458;2022-12-05T10:35:16;18.47;;;14.80;;
10469;SDS011;5282;47.052;15.458;2022-12-05T10:37:46;19.17;;;14.20;;
10469;SDS011;5282;47.052;15.458;2022-12-05T10:40:16;20.10;;;14.57;;
10469;SDS011;5282;47.052;15.458;2022-12-05T10:42:43;15.23;;;13.13;;
10469;SDS011;5282;47.052;15.458;2022-12-05T10:45:15;16.93;;;13.77;;
10469;SDS011;5282;47.052;15.458;2022-12-05T10:47:44;19.20;;;13.53;;
10469;SDS011;5282;47.052;15.458;2022-12-05T10:50:22;15.50;;;13.83;;
10469;SDS011;5282;47.052;15.458;2022-12-05T10:52:51;17.03;;;13.73;;
10469;SDS011;5282;47.052;15.458;2022-12-05T10:55:22;30.33;;;14.60;;
10469;SDS011;5282;47.052;15.458;2022-12-05T10:58:07;14.43;;;12.97;;
10469;SDS011;5282;47.052;15.458;2022-12-05T11:00:35;15.83;;;12.73;;
10469;SDS011;5282;47.052;15.458;2022-12-05T11:03:15;17.37;;;12.70;;
10469;SDS011;5282;47.052;15.458;2022-12-05T11:05:50;16.53;;;13.40;;
10469;SDS011;5282;47.052;15.458;2022-12-05T11:08:20;17.10;;;13.30;;
10469;SDS011;5282;47.052;15.458;2022-12-05T11:10:50;15.37;;;12.37;;
10469;SDS011;5282;47.052;15.458;2022-12-05T11:13:26;17.53;;;12.33;;
10469;SDS011;5282;47.052;15.458;2022-12-05T11:15:53;14.40;;;12.90;;
10469;SDS011;5282;47.052;15.458;2022-12-05T11:18:25;13.97;;;12.53;;
10469;SDS011;5282;47.052;15.458;2022-12-05T11:20:54;16.20;;;12.37;;
10469;SDS011;5282;47.052;15.458;2022-12-05T11:23:23;13.33;;;12.00;;
10469;SDS011;5282;47.052;15.458;2022-12-05T11:25:53;17.37;;;12.77;;
10469;SDS011;5282;47.052;15.458;2022-12-05T11:28:22;13.40;;;12.10;;
10469;SDS011;5282;47.052;15.458;2022-12-05T11:31:05;17.90;;;12.10;;
10469;SDS011;5282;47.052;15.458;2022-12-05T11:33:50;16.97;;;13.57;;
10469;SDS011;5282;47.052;15.458;2022-12-05T11:36:29;18.03;;;12.90;;
10469;SDS011;5282;47.052;15.458;2022-12-05T11:39:02;15.77;;;13.50;;
10469;SDS011;5282;47.052;15.458;2022-12-05T11:41:36;17.77;;;13.63;;
10469;SDS011;5282;47.052;15.458;2022-12-05T11:44:23;23.27;;;14.00;;
10469;SDS011;5282;47.052;15.458;2022-12-05T11:47:12;15.13;;;12.57;;
10469;SDS011;5282;47.052;15.458;2022-12-05T11:49:53;19.50;;;13.13;;
10469;SDS011;5282;47.052;15.458;2022-12-05T11:52:34;19.50;;;13.43;;
10469;SDS011;5282;47.052;15.458;2022-12-05T11:55:18;15.87;;;13.73;;
10469;SDS011;5282;47.052;15.458;2022-12-05T11:58:00;14.40;;;12.90;;
10469;SDS011;5282;47.052;15.458;2022-12-05T12:00:40;21.60;;;13.40;;
10469;SDS011;5282;47.052;15.458;2022-12-05T12:03:21;15.47;;;13.87;;
10469;SDS011;5282;47.052;15.458;2022-12-05T12:06:05;14.40;;;12.90;;
10469;SDS011;5282;47.052;15.458;2022-12-05T12:08:47;15.87;;;12.40;;
10469;SDS011;5282;47.052;15.458;2022-12-05T12:11:26;21.87;;;13.20;;
10469;SDS011;5282;47.052;15.458;2022-12-05T12:14:03;14.80;;;13.20;;
10469;SDS011;5282;47.052;15.458;2022-12-05T12:16:40;15.57;;;13.30;;
10469;SDS011;5282;47.052;15.458;2022-12-05T12:22:28;16.50;;;12.73;;
10469;SDS011;5282;47.052;15.458;2022-12-05T12:25:19;14.17;;;12.67;;
10469;SDS011;5282;47.052;15.458;2022-12-05T12:27:55;14.70;;;13.20;;
10469;SDS011;5282;47.052;15.458;2022-12-05T12:30:34;15.20;;;13.70;;
10469;SDS011;5282;47.052;15.458;2022-12-05T12:33:13;16.13;;;13.10;;
10469;SDS011;5282;47.052;15.458;2022-12-05T12:35:52;13.27;;;11.77;;
10469;SDS011;5282;47.052;15.458;2022-12-05T12:38:35;16.37;;;13.37;;
10469;SDS011;5282;47.052;15.458;2022-12-05T12:41:16;19.77;;;12.80;;
10469;SDS011;5282;47.052;15.458;2022-12-05T12:43:59;21.07;;;13.23;;
10469;SDS011;5282;47.052;15.458;2022-12-05T12:46:37;16.73;;;12.07;;
10469;SDS011;5282;47.052;15.458;2022-12-05T12:49:20;14.57;;;12.23;;
10469;SDS011;5282;47.052;15.458;2022-12-05T12:52:02;16.00;;;12.23;;
10469;SDS011;5282;47.052;15.458;2022-12-05T12:54:40;16.60;;;12.37;;
10469;SDS011;5282;47.052;15.458;2022-12-05T12:57:21;14.87;;;11.93;;
10469;SDS011;5282;47.052;15.458;2022-12-05T12:59:57;13.27;;;11.83;;
10469;SDS011;5282;47.052;15.458;2022-12-05T13:02:32;15.17;;;12.07;;
10469;SDS011;5282;47.052;15.458;2022-12-05T13:05:14;15.87;;;12.37;;
10469;SDS011;5282;47.052;15.458;2022-12-05T13:07:49;15.67;;;12.37;;
10469;SDS011;5282;47.052;15.458;2022-12-05T13:10:20;14.87;;;12.20;;
10469;SDS011;5282;47.052;15.458;2022-12-05T13:12:54;13.97;;;11.97;;
10469;SDS011;5282;47.052;15.458;2022-12-05T13:15:28;14.60;;;11.77;;
10469;SDS011;5282;47.052;15.458;2022-12-05T13:18:00;15.43;;;12.03;;
10469;SDS011;5282;47.052;15.458;2022-12-05T13:20:29;13.27;;;11.20;;
10469;SDS011;5282;47.052;15.458;2022-12-05T13:23:00;13.30;;;11.90;;
10469;SDS011;5282;47.052;15.458;2022-12-05T13:25:32;14.67;;;11.57;;
10469;SDS011;5282;47.052;15.458;2022-12-05T13:28:04;11.83;;;10.73;;
10469;SDS011;5282;47.052;15.458;2022-12-05T13:30:33;12.17;;;10.87;;
10469;SDS011;5282;47.052;15.458;2022-12-05T13:33:22;12.53;;;11.23;;
10469;SDS011;5282;47.052;15.458;2022-12-05T13:35:53;11.67;;;10.47;;
10469;SDS011;5282;47.052;15.458;2022-12-05T13:38:39;11.83;;;10.53;;
10469;SDS011;5282;47.052;15.458;2022-12-05T13:41:36;12.30;;;11.10;;
10469;SDS011;5282;47.052;15.458;2022-12-05T13:44:26;13.23;;;10.70;;
10469;SDS011;5282;47.052;15.458;2022-12-05T13:46:59;13.73;;;11.10;;
10469;SDS011;5282;47.052;15.458;2022-12-05T13:49:35;17.37;;;13.30;;
10469;SDS011;5282;47.052;15.458;2022-12-05T13:52:11;18.50;;;13.37;;
10469;SDS011;5282;47.052;15.458;2022-12-05T13:54:42;18.33;;;13.67;;
10469;SDS011;5282;47.052;15.458;2022-12-05T14:00:28;17.37;;;14.00;;
10469;SDS011;5282;47.052;15.458;2022-12-05T14:03:00;18.43;;;12.53;;
10469;SDS011;5282;47.052;15.458;2022-12-05T14:05:49;16.37;;;12.77;;
10469;SDS011;5282;47.052;15.458;2022-12-05T14:11:20;22.03;;;14.73;;
10469;SDS011;5282;47.052;15.458;2022-12-05T14:13:47;21.67;;;14.50;;
10469;SDS011;5282;47.052;15.458;2022-12-05T14:19:23;24.47;;;16.27;;
10469;SDS011;5282;47.052;15.458;2022-12-05T14:22:19;26.23;;;16.70;;
10469;SDS011;5282;47.052;15.458;2022-12-05T14:25:04;27.70;;;18.20;;
10469;SDS011;5282;47.052;15.458;2022-12-05T14:27:41;29.13;;;18.13;;
10469;SDS011;5282;47.052;15.458;2022-12-05T14:30:17;26.30;;;16.33;;
10469;SDS011;5282;47.052;15.458;2022-12-05T14:32:47;23.50;;;16.40;;
10469;SDS011;5282;47.052;15.458;2022-12-05T14:35:18;33.63;;;20.20;;
10469;SDS011;5282;47.052;15.458;2022-12-05T14:37:53;35.00;;;18.47;;
10469;SDS011;5282;47.052;15.458;2022-12-05T14:40:24;29.87;;;18.17;;
10469;SDS011;5282;47.052;15.458;2022-12-05T14:42:58;32.73;;;18.40;;
10469;SDS011;5282;47.052;15.458;2022-12-05T14:45:31;28.83;;;17.73;;
10469;SDS011;5282;47.052;15.458;2022-12-05T14:48:02;28.37;;;17.63;;
10469;SDS011;5282;47.052;15.458;2022-12-05T14:50:35;28.97;;;18.37;;
10469;SDS011;5282;47.052;15.458;2022-12-05T14:53:17;27.83;;;17.67;;
10469;SDS011;5282;47.052;15.458;2022-12-05T14:55:48;35.03;;;18.13;;
10469;SDS011;5282;47.052;15.458;2022-12-05T14:58:20;30.27;;;17.63;;
10469;SDS011;5282;47.052;15.458;2022-12-05T15:00:55;27.90;;;18.83;;
10469;SDS011;5282;47.052;15.458;2022-12-05T15:03:28;25.80;;;17.33;;
10469;SDS011;5282;47.052;15.458;2022-12-05T15:05:57;27.53;;;17.30;;